Time;durP1;ratioP1;P1;durP2;ratioP2;P2;SDS_P1;SDS_P2;PMS_P1;PMS_P2;Temp;Humidity;BMP_temperature;BMP_pressure;BME280_temperature;BME280_humidity;BME280_pressure;Samples;Min_cycle;Max_cycle;Signal;HPM_P1;HPM_P2
2023/10/09 00:02:31;;;;;;;8.60;4.40;;;;;;;1.52;73.96;101232.36;108012;274;96272;-55
2023/10/09 00:05:10;;;;;;;8.00;3.90;;;;;;;1.47;74.14;101229.36;107917;274;97463;-54
2023/10/09 00:07:55;;;;;;;8.40;3.50;;;;;;;1.45;74.07;101230.05;107960;274;118928;-52
2023/10/09 00:10:45;;;;;;;8.30;3.90;;;;;;;1.44;74.26;101228.55;107949;274;105564;-53
2023/10/09 00:13:29;;;;;;;6.70;3.40;;;;;;;1.45;74.36;101230.98;107951;274;115435;-55
2023/10/09 00:16:23;;;;;;;7.30;3.50;;;;;;;1.42;74.55;101229.41;107968;274;96027;-58
2023/10/09 00:19:13;;;;;;;7.70;3.70;;;;;;;1.43;74.61;101227.01;107968;274;98532;-58
2023/10/09 00:21:55;;;;;;;9.30;4.10;;;;;;;1.42;74.71;101228.84;107944;274;118080;-58
2023/10/09 00:24:30;;;;;;;9.40;3.90;;;;;;;1.44;74.77;101221.27;108032;274;105189;-58
2023/10/09 00:27:12;;;;;;;7.20;3.70;;;;;;;1.42;74.86;101223.54;108082;274;114941;-54
2023/10/09 00:29:54;;;;;;;8.00;3.70;;;;;;;1.41;74.87;101219.92;108036;274;94393;-54
2023/10/09 00:32:42;;;;;;;7.90;4.00;;;;;;;1.38;74.98;101215.30;107997;274;96945;-54
2023/10/09 00:35:41;;;;;;;9.30;4.30;;;;;;;1.35;75.07;101215.16;108032;274;118741;-54
2023/10/09 00:38:33;;;;;;;8.20;3.80;;;;;;;1.36;75.23;101210.52;107968;274;103864;-57
2023/10/09 00:41:19;;;;;;;7.90;4.50;;;;;;;1.35;75.24;101198.88;108048;274;115011;-55
2023/10/09 00:44:00;;;;;;;8.30;3.90;;;;;;;1.39;75.34;101187.22;107969;274;95954;-55
2023/10/09 00:46:44;;;;;;;8.70;4.20;;;;;;;1.40;75.36;101189.81;107993;274;96718;-57
2023/10/09 00:49:26;;;;;;;12.60;4.50;;;;;;;1.41;75.38;101196.45;107968;274;119337;-57
2023/10/09 00:52:02;;;;;;;;;;;;;;;1.41;75.56;101191.53;107967;274;105209;-52
2023/10/09 00:54:44;;;;;;;7.80;3.80;;;;;;;1.39;75.54;101186.35;107919;274;114202;-52
2023/10/09 00:57:25;;;;;;;8.30;4.40;;;;;;;1.36;75.71;101185.33;107949;274;94496;-53
2023/10/09 01:00:12;;;;;;;7.00;4.30;;;;;;;1.35;75.80;101180.96;108018;274;97396;-53
2023/10/09 01:03:09;;;;;;;8.50;4.30;;;;;;;1.35;75.93;101180.23;108017;274;118938;-52
2023/10/09 01:05:51;;;;;;;13.10;4.50;;;;;;;1.38;76.06;101181.77;108033;274;105037;-55
2023/10/09 01:08:43;;;;;;;9.90;4.50;;;;;;;1.47;76.14;101180.05;107894;274;114729;-55
2023/10/09 01:11:23;;;;;;;10.90;4.30;;;;;;;1.51;76.17;101180.12;108025;274;95317;-52
2023/10/09 01:14:12;;;;;;;8.90;4.50;;;;;;;1.52;76.24;101171.90;108019;274;97118;-51
2023/10/09 01:16:49;;;;;;;7.80;4.20;;;;;;;1.53;76.22;101161.19;107998;274;117121;-52
2023/10/09 01:19:30;;;;;;;9.00;4.20;;;;;;;1.54;76.37;101164.46;107771;274;104423;-51
2023/10/09 01:22:14;;;;;;;7.00;3.90;;;;;;;1.55;76.43;101169.73;108006;274;114718;-52
2023/10/09 01:24:55;;;;;;;7.20;4.00;;;;;;;1.54;76.47;101154.52;107965;274;93788;-52
2023/10/09 01:27:34;;;;;;;7.40;3.60;;;;;;;1.55;76.49;101143.61;107996;274;98560;-52
2023/10/09 01:30:13;;;;;;;9.00;3.40;;;;;;;1.55;76.57;101142.90;107963;274;118619;-53
2023/10/09 01:32:52;;;;;;;8.50;4.20;;;;;;;1.53;76.60;101141.83;107993;274;105242;-56
2023/10/09 01:35:32;;;;;;;8.90;4.40;;;;;;;1.54;76.76;101136.44;107963;274;114280;-55
2023/10/09 01:38:13;;;;;;;7.50;3.90;;;;;;;1.58;76.79;101139.83;107934;274;95392;-55
2023/10/09 01:41:02;;;;;;;8.00;4.00;;;;;;;1.60;76.89;101144.81;107952;274;97742;-54
2023/10/09 01:43:44;;;;;;;9.80;3.80;;;;;;;1.65;76.88;101142.31;107985;274;120195;-53
2023/10/09 01:46:25;;;;;;;10.10;4.30;;;;;;;1.67;76.90;101138.59;108044;274;105753;-53
2023/10/09 01:49:16;;;;;;;8.90;4.60;;;;;;;1.75;77.07;101128.43;107948;274;113348;-53
2023/10/09 01:52:08;;;;;;;8.10;4.20;;;;;;;1.87;77.06;101136.04;108031;274;93166;-57
2023/10/09 01:54:54;;;;;;;10.90;5.10;;;;;;;1.97;77.02;101134.19;108028;274;98032;-57
2023/10/09 01:57:30;;;;;;;8.10;4.20;;;;;;;2.06;77.11;101128.67;108021;274;119407;-58
2023/10/09 02:00:06;;;;;;;8.40;4.20;;;;;;;2.13;77.03;101123.94;108055;274;105216;-57
2023/10/09 02:02:45;;;;;;;10.30;4.50;;;;;;;2.20;76.89;101120.50;107972;274;113293;-53
2023/10/09 02:05:27;;;;;;;9.20;3.80;;;;;;;2.26;76.86;101119.00;107952;274;95475;-53
2023/10/09 02:08:04;;;;;;;7.50;4.10;;;;;;;2.29;76.82;101119.60;107711;274;98151;-57
2023/10/09 02:10:40;;;;;;;9.10;4.00;;;;;;;2.32;76.77;101125.39;107997;274;119092;-58
2023/10/09 02:13:17;;;;;;;8.20;4.60;;;;;;;2.32;76.78;101130.92;107954;274;104024;-58
2023/10/09 02:15:53;;;;;;;9.30;4.20;;;;;;;2.32;76.74;101124.02;107988;274;113745;-57
2023/10/09 02:18:52;;;;;;;11.40;4.70;;;;;;;2.33;76.72;101113.97;108011;274;95085;-57
2023/10/09 02:21:34;;;;;;;7.60;4.80;;;;;;;2.37;76.60;101112.78;107962;274;96569;-58
2023/10/09 02:24:26;;;;;;;8.60;4.60;;;;;;;2.37;76.66;101117.73;107967;274;119442;-58
2023/10/09 02:27:11;;;;;;;7.20;3.90;;;;;;;2.40;76.58;101115.05;107929;274;105191;-56
2023/10/09 02:29:47;;;;;;;;;;;;;;;2.41;76.64;101112.63;107979;274;114827;-56
2023/10/09 02:32:34;;;;;;;8.90;4.90;;;;;;;2.46;76.55;101109.73;108062;274;94142;-56
2023/10/09 02:35:35;;;;;;;7.30;4.20;;;;;;;2.52;76.48;101105.39;108082;274;98564;-58
2023/10/09 02:38:14;;;;;;;8.70;4.50;;;;;;;2.58;76.62;101110.37;107935;274;120039;-54
2023/10/09 02:41:20;;;;;;;10.20;4.30;;;;;;;2.63;76.50;101112.63;108047;274;106269;-54
2023/10/09 02:43:58;;;;;;;8.40;4.20;;;;;;;2.64;76.37;101114.35;108011;274;114541;-54
2023/10/09 02:46:39;;;;;;;7.20;4.00;;;;;;;2.65;76.45;101111.82;107532;274;577750;-53
2023/10/09 02:49:22;;;;;;;8.70;4.30;;;;;;;2.64;76.34;101104.90;107773;274;97971;-51
2023/10/09 02:51:59;;;;;;;9.30;4.10;;;;;;;2.66;76.37;101106.24;108022;274;119785;-55
2023/10/09 02:54:41;;;;;;;8.40;4.30;;;;;;;2.63;76.47;101107.50;107923;274;104777;-55
2023/10/09 02:57:36;;;;;;;6.60;4.20;;;;;;;2.60;76.46;101107.19;107906;274;113675;-55
2023/10/09 03:00:18;;;;;;;7.30;4.10;;;;;;;2.66;76.53;101097.66;107929;274;93796;-55
2023/10/09 03:02:58;;;;;;;8.70;4.60;;;;;;;2.69;76.45;101102.92;107968;274;97727;-51
2023/10/09 03:05:42;;;;;;;7.40;4.20;;;;;;;2.70;76.48;101101.63;107711;274;119477;-53
2023/10/09 03:08:23;;;;;;;8.00;4.20;;;;;;;2.71;76.53;101105.61;107977;274;105195;-53
2023/10/09 03:11:12;;;;;;;6.90;4.70;;;;;;;2.70;76.53;101101.98;107954;274;114381;-55
2023/10/09 03:13:52;;;;;;;8.70;4.50;;;;;;;2.71;76.62;101095.81;108005;274;94810;-55
2023/10/09 03:16:30;;;;;;;8.00;4.70;;;;;;;2.74;76.61;101096.33;108017;274;96826;-57
2023/10/09 03:19:11;;;;;;;7.80;4.10;;;;;;;2.76;76.59;101096.81;107940;274;118810;-57
2023/10/09 03:21:53;;;;;;;8.10;4.50;;;;;;;2.78;76.68;101095.47;108000;274;105966;-53
2023/10/09 03:24:32;;;;;;;8.00;4.60;;;;;;;2.78;76.59;101096.37;107962;274;114162;-52
2023/10/09 03:27:09;;;;;;;8.60;4.60;;;;;;;2.79;76.61;101092.82;107935;267;92455;-53
2023/10/09 03:29:49;;;;;;;8.00;4.80;;;;;;;2.79;76.65;101096.58;107943;274;96478;-53
2023/10/09 03:32:34;;;;;;;8.70;4.70;;;;;;;2.78;76.58;101099.35;107915;275;119940;-53
2023/10/09 03:35:24;;;;;;;7.50;4.50;;;;;;;2.77;76.73;101098.36;107858;275;106222;-53
2023/10/09 03:38:12;;;;;;;10.50;5.70;;;;;;;2.75;76.70;101095.67;107917;275;113972;-53
2023/10/09 03:40:53;;;;;;;9.80;4.90;;;;;;;2.75;76.61;101086.77;107909;275;95752;-57
2023/10/09 03:43:37;;;;;;;7.00;4.50;;;;;;;2.74;76.77;101081.23;107912;275;98140;-57
2023/10/09 03:46:20;;;;;;;8.50;4.90;;;;;;;2.71;76.91;101079.84;107854;275;120069;-53
2023/10/09 03:49:02;;;;;;;10.50;4.90;;;;;;;2.69;76.99;101085.14;107705;276;106383;-53
2023/10/09 03:51:45;;;;;;;9.00;5.10;;;;;;;2.69;76.93;101089.04;107725;276;114604;-53
2023/10/09 03:54:25;;;;;;;11.90;5.00;;;;;;;2.70;77.07;101086.16;107968;275;91145;-54
2023/10/09 03:57:06;;;;;;;9.00;5.20;;;;;;;2.71;77.08;101076.45;107983;275;97465;-52
2023/10/09 03:59:46;;;;;;;8.60;5.20;;;;;;;2.74;77.00;101077.77;107962;275;119752;-52
2023/10/09 04:02:27;;;;;;;8.50;4.80;;;;;;;2.76;77.27;101080.50;108004;275;106009;-55
2023/10/09 04:05:09;;;;;;;10.60;5.10;;;;;;;2.80;77.12;101084.05;107964;276;115111;-55
2023/10/09 04:07:53;;;;;;;11.20;5.20;;;;;;;2.80;77.19;101081.02;107945;276;95238;-53
2023/10/09 04:10:43;;;;;;;10.30;5.40;;;;;;;2.82;77.21;101081.42;107975;276;97413;-55
2023/10/09 04:13:28;;;;;;;9.50;4.90;;;;;;;2.87;77.24;101082.29;107892;276;119602;-55
2023/10/09 04:16:33;;;;;;;10.10;5.30;;;;;;;2.94;77.09;101079.59;107930;275;104371;-52
2023/10/09 04:19:19;;;;;;;9.30;5.40;;;;;;;2.96;77.23;101076.55;107983;275;113797;-53
2023/10/09 04:21:58;;;;;;;10.10;5.20;;;;;;;2.96;77.18;101073.37;107942;275;93252;-57
2023/10/09 04:24:41;;;;;;;8.50;5.00;;;;;;;2.96;77.10;101074.61;107955;275;97892;-57
2023/10/09 04:27:26;;;;;;;9.60;5.00;;;;;;;2.97;77.02;101065.23;107931;276;120282;-53
2023/10/09 04:30:19;;;;;;;8.40;4.50;;;;;;;2.97;77.01;101057.38;107948;275;105894;-53
2023/10/09 04:33:04;;;;;;;9.30;4.90;;;;;;;3.00;77.01;101053.09;108003;275;113450;-53
2023/10/09 04:35:45;;;;;;;9.30;5.10;;;;;;;3.04;77.02;101044.05;107742;275;95205;-54
2023/10/09 04:38:25;;;;;;;13.10;5.30;;;;;;;3.08;77.02;101039.51;107916;275;98098;-55
2023/10/09 04:41:06;;;;;;;9.60;5.00;;;;;;;3.10;76.90;101036.23;108033;275;119511;-56
2023/10/09 04:43:50;;;;;;;9.20;5.20;;;;;;;3.14;76.89;101034.15;107994;275;105659;-56
2023/10/09 04:46:31;;;;;;;8.90;5.00;;;;;;;3.13;76.90;101022.80;107941;275;114073;-52
2023/10/09 04:49:27;;;;;;;9.90;4.60;;;;;;;3.12;76.95;101028.13;107949;275;95019;-53
2023/10/09 04:52:18;;;;;;;9.10;4.70;;;;;;;3.12;77.03;101024.73;107729;275;99999;-52
2023/10/09 04:58:02;;;;;;;8.30;4.70;;;;;;;3.10;76.90;101012.96;107925;275;105272;-54
2023/10/09 05:01:03;;;;;;;8.20;3.90;;;;;;;3.12;76.93;101012.45;107905;275;114742;-57
2023/10/09 05:03:56;;;;;;;8.00;4.60;;;;;;;3.14;77.03;101002.61;107975;275;91972;-58
2023/10/09 05:06:55;;;;;;;10.30;5.10;;;;;;;3.17;76.97;100996.56;107957;275;96858;-58
2023/10/09 05:09:55;;;;;;;8.10;4.30;;;;;;;3.17;77.01;100989.23;107935;275;119011;-58
2023/10/09 05:12:41;;;;;;;13.80;4.40;;;;;;;3.15;77.11;100986.71;107996;275;104930;-57
2023/10/09 05:15:26;;;;;;;12.20;4.70;;;;;;;3.16;77.02;100979.55;107931;275;114056;-56
2023/10/09 05:18:09;;;;;;;6.60;3.10;;;;;;;3.15;77.11;100967.70;107910;275;95750;-59
2023/10/09 05:21:35;;;;;;;8.30;3.90;;;;;;;3.19;77.12;100961.34;107928;275;98384;-57
2023/10/09 05:27:15;;;;;;;9.30;4.20;;;;;;;3.30;77.02;100965.04;107980;275;104234;-55
2023/10/09 05:32:49;;;;;;;10.30;4.40;;;;;;;3.34;77.01;100978.86;107920;275;92643;-55
2023/10/09 05:36:04;;;;;;;8.90;4.10;;;;;;;3.36;77.11;100982.98;107732;276;99418;-54
2023/10/09 05:38:58;;;;;;;10.10;3.90;;;;;;;3.40;77.26;100976.94;107924;275;119555;-58
2023/10/09 05:41:59;;;;;;;8.90;4.00;;;;;;;3.44;77.24;100976.95;107990;275;107122;-56
2023/10/09 05:47:32;;;;;;;9.10;4.20;;;;;;;3.58;76.97;100972.20;107910;275;95785;-56
2023/10/09 05:50:35;;;;;;;8.10;3.80;;;;;;;3.59;77.08;100973.13;107920;275;96886;-56
2023/10/09 05:53:35;;;;;;;13.40;4.10;;;;;;;3.63;77.13;100968.75;107996;275;119964;-54
2023/10/09 06:05:40;;;;;;;6.60;3.60;;;;;;;3.86;76.89;100952.52;107949;275;96601;-52
2023/10/09 06:08:07;;;;;;;9.30;4.20;;;;;;;3.90;76.97;100956.03;107926;275;120050;-54
2023/10/09 06:11:05;;;;;;;10.20;3.90;;;;;;;3.99;76.75;100952.94;107995;275;105814;-53
2023/10/09 06:13:45;;;;;;;8.90;3.70;;;;;;;4.09;76.67;100956.48;107944;275;114420;-54
2023/10/09 06:16:31;;;;;;;7.80;4.20;;;;;;;4.20;76.55;100959.48;107994;275;94240;-53
2023/10/09 06:19:27;;;;;;;9.20;5.00;;;;;;;4.26;76.43;100958.00;107677;275;99005;-54
2023/10/09 06:22:56;;;;;;;9.60;4.50;;;;;;;4.34;76.26;100961.08;108012;275;119076;-53
2023/10/09 06:25:17;;;;;;;6.80;4.20;;;;;;;4.41;76.38;100958.84;107961;275;105817;-52
2023/10/09 06:28:01;;;;;;;8.50;4.60;;;;;;;4.48;76.11;100961.04;107908;275;114446;-59
2023/10/09 06:30:44;;;;;;;5.60;3.70;;;;;;;4.53;76.10;100953.65;107692;276;97599;-57
2023/10/09 06:33:57;;;;;;;9.00;4.30;;;;;;;4.56;76.17;100956.39;107986;275;98450;-56
2023/10/09 06:36:31;;;;;;;8.80;3.70;;;;;;;4.64;76.22;100963.86;107910;275;119173;-56
2023/10/09 06:42:30;;;;;;;6.60;3.80;;;;;;;4.84;76.10;100957.23;107951;275;114268;-58
2023/10/09 06:45:14;;;;;;;7.30;3.80;;;;;;;5.03;75.94;100951.54;107967;275;93669;-58
2023/10/09 06:48:07;;;;;;;9.80;3.60;;;;;;;5.16;75.71;100954.42;108071;276;97723;-57
2023/10/09 06:50:58;;;;;;;9.70;5.30;;;;;;;5.22;75.77;100954.77;108063;275;119088;-57
2023/10/09 06:59:24;;;;;;;12.00;4.10;;;;;;;5.51;74.92;100952.05;107946;275;92943;-58
2023/10/09 07:02:26;;;;;;;14.40;4.10;;;;;;;5.59;74.71;100950.55;107981;276;96742;-53
2023/10/09 07:05:10;;;;;;;10.90;4.50;;;;;;;5.71;74.75;100946.55;107940;275;119087;-51
2023/10/09 07:07:54;;;;;;;7.70;4.30;;;;;;;5.84;74.71;100953.38;107921;275;105630;-56
2023/10/09 07:10:42;;;;;;;10.10;4.70;;;;;;;6.03;74.72;100955.75;107979;275;114052;-56
2023/10/09 07:13:24;;;;;;;17.50;4.90;;;;;;;6.27;74.75;100954.23;107895;275;93111;-56
2023/10/09 07:19:09;;;;;;;12.90;5.00;;;;;;;6.78;73.94;100957.25;107978;275;120700;-56
2023/10/09 07:21:53;;;;;;;24.10;5.60;;;;;;;7.01;73.66;100962.94;108012;275;105909;-56
2023/10/09 07:24:43;;;;;;;10.60;5.40;;;;;;;7.27;73.30;100961.06;107990;275;114410;-56
2023/10/09 07:27:43;;;;;;;8.50;4.10;;;;;;;7.58;73.14;100962.52;107828;276;92557;-56
2023/10/09 07:30:37;;;;;;;7.80;4.60;;;;;;;7.97;72.89;100960.42;107962;276;96939;-55
2023/10/09 07:33:17;;;;;;;11.10;5.10;;;;;;;8.26;72.51;100950.61;107966;275;119200;-59
2023/10/09 07:35:58;;;;;;;7.60;4.50;;;;;;;8.37;72.09;100948.49;107995;275;105327;-59
2023/10/09 07:38:44;;;;;;;7.30;4.50;;;;;;;8.51;71.74;100942.69;107960;275;113683;-59
2023/10/09 07:41:44;;;;;;;6.60;4.10;;;;;;;8.85;71.44;100940.03;108006;276;92461;-55
2023/10/09 07:44:36;;;;;;;8.50;4.40;;;;;;;8.93;70.43;100937.09;108005;275;96882;-55
2023/10/09 07:50:02;;;;;;;7.80;3.90;;;;;;;9.18;69.48;100942.61;107911;275;106674;-55
2023/10/09 07:52:44;;;;;;;7.90;3.90;;;;;;;9.18;69.35;100947.50;107918;275;112834;-53
2023/10/09 07:55:39;;;;;;;8.00;3.80;;;;;;;9.36;69.00;100947.82;107870;275;93483;-53
2023/10/09 07:58:16;;;;;;;6.60;3.70;;;;;;;9.73;68.50;100943.69;107903;275;97478;-56
2023/10/09 08:01:08;;;;;;;5.90;3.50;;;;;;;10.07;68.00;100935.13;107890;275;118689;-58
2023/10/09 08:04:01;;;;;;;6.60;3.40;;;;;;;10.29;66.93;100931.61;107958;275;104317;-59
2023/10/09 08:06:47;;;;;;;6.00;3.50;;;;;;;10.14;65.80;100929.91;107912;275;112635;-54
2023/10/09 08:09:46;;;;;;;4.50;2.80;;;;;;;10.00;65.30;100927.81;107938;275;93281;-54
2023/10/09 08:12:57;;;;;;;6.00;3.20;;;;;;;9.88;65.24;100914.33;108053;275;97273;-52
2023/10/09 08:15:51;;;;;;;5.70;3.30;;;;;;;9.80;65.21;100918.65;107996;276;119535;-56
2023/10/09 08:18:44;;;;;;;6.00;3.00;;;;;;;9.80;65.29;100914.40;107963;275;105087;-55
2023/10/09 08:27:46;;;;;;;5.70;3.00;;;;;;;9.84;64.77;100922.52;107946;276;97151;-55
2023/10/09 08:30:40;;;;;;;5.70;2.90;;;;;;;10.08;64.87;100925.64;107898;275;119244;-56
2023/10/09 08:36:14;;;;;;;4.70;2.50;;;;;;;10.69;64.52;100911.98;107921;275;113212;-57
2023/10/09 08:38:58;;;;;;;5.10;2.90;;;;;;;11.03;63.98;100905.73;107900;276;94759;-57
2023/10/09 08:41:37;;;;;;;5.40;2.80;;;;;;;11.27;63.46;100908.16;107891;275;98394;-56
2023/10/09 08:44:17;;;;;;;7.10;2.80;;;;;;;11.37;62.35;100908.04;107693;275;119261;-56
2023/10/09 08:47:00;;;;;;;5.00;2.80;;;;;;;11.44;61.59;100904.84;107975;275;105688;-56
2023/10/09 08:49:42;;;;;;;5.20;2.70;;;;;;;11.40;61.23;100903.35;107882;275;114176;-56
2023/10/09 08:52:22;;;;;;;5.70;2.40;;;;;;;11.34;61.14;100902.58;107984;275;94744;-57
2023/10/09 08:55:06;;;;;;;7.70;2.70;;;;;;;11.32;60.80;100908.31;107939;275;95761;-57
2023/10/09 08:57:44;;;;;;;5.60;2.80;;;;;;;11.35;60.22;100903.29;107961;275;117937;-57
2023/10/09 09:00:26;;;;;;;7.50;2.80;;;;;;;11.30;60.73;100900.08;107949;276;105469;-57
2023/10/09 09:03:01;;;;;;;5.10;2.40;;;;;;;11.39;60.66;100895.05;107931;276;114995;-53
2023/10/09 09:05:39;;;;;;;4.80;2.50;;;;;;;11.54;60.32;100892.44;107990;275;92690;-57
2023/10/09 09:08:36;;;;;;;4.90;3.10;;;;;;;11.68;60.01;100892.79;107922;275;98162;-58
2023/10/09 09:11:16;;;;;;;3.60;1.80;;;;;;;11.76;58.71;100883.69;107969;275;120508;-59
2023/10/09 09:14:18;;;;;;;4.20;2.20;;;;;;;11.78;58.71;100875.77;107911;275;105122;-57
2023/10/09 09:16:52;;;;;;;5.60;2.30;;;;;;;11.81;58.02;100870.77;107683;276;114046;-60
2023/10/09 09:19:37;;;;;;;5.90;3.20;;;;;;;11.82;58.04;100870.25;107862;276;94383;-61
2023/10/09 09:22:19;;;;;;;4.90;2.30;;;;;;;11.79;58.07;100868.65;107956;275;98329;-56
2023/10/09 09:25:09;;;;;;;5.20;3.30;;;;;;;11.79;57.56;100868.53;107897;275;118176;-56
2023/10/09 09:27:55;;;;;;;4.70;2.30;;;;;;;11.74;57.71;100866.89;107958;275;106179;-56
2023/10/09 09:30:33;;;;;;;4.90;2.30;;;;;;;11.66;57.62;100867.69;107940;275;112583;-58
2023/10/09 09:33:38;;;;;;;4.40;1.80;;;;;;;11.66;57.81;100868.09;107991;275;94644;-60
2023/10/09 09:36:28;;;;;;;3.60;1.90;;;;;;;11.68;57.53;100859.23;107923;275;97529;-59
2023/10/09 09:39:18;;;;;;;4.40;2.20;;;;;;;12.08;57.91;100848.89;108042;276;119794;-61
2023/10/09 09:42:03;;;;;;;3.90;1.90;;;;;;;12.49;57.38;100835.08;107964;275;105612;-56
2023/10/09 09:44:44;;;;;;;4.60;2.20;;;;;;;12.66;57.18;100836.32;107982;276;114763;-57
2023/10/09 09:47:27;;;;;;;3.60;2.00;;;;;;;12.71;56.73;100831.57;108019;275;94761;-59
2023/10/09 09:50:22;;;;;;;3.00;1.60;;;;;;;12.72;55.82;100817.90;108028;275;96141;-59
2023/10/09 09:53:00;;;;;;;3.00;1.30;;;;;;;12.70;55.88;100821.59;107924;275;118783;-56
2023/10/09 09:55:51;;;;;;;3.30;1.40;;;;;;;12.67;55.45;100827.95;107958;275;107069;-59
2023/10/09 09:58:42;;;;;;;3.90;1.50;;;;;;;12.66;55.34;100818.42;107918;275;113478;-59
2023/10/09 10:01:24;;;;;;;3.40;1.30;;;;;;;12.56;54.86;100817.00;107702;275;93975;-57
2023/10/09 10:04:06;;;;;;;3.00;1.50;;;;;;;12.52;54.61;100813.39;107913;275;97538;-56
2023/10/09 10:06:47;;;;;;;4.60;1.60;;;;;;;12.60;54.50;100815.02;107950;275;119133;-56
2023/10/09 10:09:45;;;;;;;3.30;2.00;;;;;;;12.70;54.26;100813.92;107932;275;104175;-56
2023/10/09 10:13:00;;;;;;;3.50;1.80;;;;;;;12.74;54.19;100811.66;107918;275;114903;-58
2023/10/09 10:16:19;;;;;;;3.90;1.90;;;;;;;12.69;53.58;100801.61;108005;275;92170;-53
2023/10/09 10:19:21;;;;;;;4.60;2.00;;;;;;;12.61;53.16;100795.10;108006;275;96496;-53
2023/10/09 10:22:01;;;;;;;5.70;1.80;;;;;;;12.54;53.21;100794.95;108010;275;119511;-56
2023/10/09 10:24:57;;;;;;;4.50;2.30;;;;;;;12.49;53.34;100787.80;107980;275;104694;-56
2023/10/09 10:27:44;;;;;;;3.70;1.90;;;;;;;12.43;53.37;100780.58;108011;276;114567;-53
2023/10/09 10:30:43;;;;;;;5.00;2.00;;;;;;;12.44;53.57;100783.96;108023;275;95170;-52
2023/10/09 10:33:27;;;;;;;4.40;2.10;;;;;;;12.46;53.65;100780.93;108010;275;95576;-59
2023/10/09 10:36:06;;;;;;;4.80;2.00;;;;;;;12.43;53.63;100777.48;108011;275;118799;-53
2023/10/09 10:38:49;;;;;;;3.90;2.10;;;;;;;12.45;53.64;100781.55;107914;275;104420;-51
2023/10/09 10:41:31;;;;;;;4.20;2.10;;;;;;;12.45;53.68;100772.16;107953;275;113319;-58
2023/10/09 10:47:00;;;;;;;3.70;2.20;;;;;;;12.48;53.74;100774.73;107519;275;463014;-59
2023/10/09 10:49:40;;;;;;;6.00;2.70;;;;;;;12.43;53.58;100775.27;107788;276;119244;-59
2023/10/09 10:52:41;;;;;;;4.00;2.20;;;;;;;12.31;53.78;100769.70;107842;276;103816;-54
2023/10/09 10:58:24;;;;;;;4.00;2.20;;;;;;;12.26;53.89;100765.01;107930;276;93997;-54
2023/10/09 11:03:57;;;;;;;4.20;1.70;;;;;;;12.10;53.61;100760.90;107977;276;119723;-56
2023/10/09 11:06:43;;;;;;;4.50;1.90;;;;;;;12.05;53.70;100757.51;107962;276;105962;-54
2023/10/09 11:09:35;;;;;;;3.00;1.60;;;;;;;12.05;53.64;100754.13;107975;275;115937;-53
2023/10/09 11:12:23;;;;;;;3.80;1.80;;;;;;;11.99;53.39;100749.95;107962;275;94584;-54
2023/10/09 11:15:08;;;;;;;3.80;1.90;;;;;;;11.96;53.76;100742.65;107775;276;100621;-54
2023/10/09 11:18:04;;;;;;;4.70;2.20;;;;;;;11.96;53.48;100737.19;108010;275;119420;-54
2023/10/09 11:20:56;;;;;;;3.80;2.20;;;;;;;11.93;53.13;100735.62;107966;275;104760;-59
2023/10/09 11:23:39;;;;;;;5.10;2.30;;;;;;;11.94;53.76;100732.77;107917;276;114275;-59
2023/10/09 11:26:25;;;;;;;4.00;2.20;;;;;;;11.97;53.33;100728.79;107966;275;93682;-54
2023/10/09 11:29:23;;;;;;;4.50;2.30;;;;;;;11.99;53.64;100731.20;107937;275;98512;-53
2023/10/09 11:32:17;;;;;;;4.40;2.40;;;;;;;12.09;53.83;100734.17;107957;276;119928;-55
2023/10/09 11:35:19;;;;;;;4.00;2.20;;;;;;;12.13;54.19;100736.64;107921;275;105002;-54
2023/10/09 11:38:21;;;;;;;4.80;2.70;;;;;;;12.19;54.10;100728.30;107877;276;114929;-53
2023/10/09 11:41:18;;;;;;;4.70;2.90;;;;;;;12.18;54.40;100721.95;107874;275;93607;-54
2023/10/09 11:43:58;;;;;;;4.40;2.40;;;;;;;12.23;54.03;100723.42;107920;275;97606;-54
2023/10/09 11:46:48;;;;;;;7.10;2.80;;;;;;;12.18;54.12;100714.23;107945;275;119618;-55
2023/10/09 11:49:44;;;;;;;5.10;2.80;;;;;;;12.21;54.42;100712.02;107951;275;104638;-56
2023/10/09 11:55:20;;;;;;;;;;;;;;;12.32;55.08;100705.30;107957;276;95517;-57
2023/10/09 11:57:59;;;;;;;4.20;3.00;;;;;;;12.39;55.40;100703.17;108026;275;97903;-56
2023/10/09 12:00:45;;;;;;;4.80;3.00;;;;;;;12.48;55.78;100705.35;108030;276;119335;-55
2023/10/09 12:03:30;;;;;;;5.60;3.00;;;;;;;12.48;56.06;100709.80;107918;275;105694;-56
2023/10/09 12:06:12;;;;;;;4.70;2.90;;;;;;;12.42;55.92;100705.15;108059;276;114466;-57
2023/10/09 12:08:53;;;;;;;6.40;3.20;;;;;;;12.31;56.22;100700.80;107931;276;94803;-58
2023/10/09 12:11:34;;;;;;;6.60;3.50;;;;;;;12.31;56.59;100703.80;107941;275;97990;-55
2023/10/09 12:14:23;;;;;;;5.50;3.50;;;;;;;12.35;57.09;100702.22;107941;276;118294;-55
2023/10/09 12:17:05;;;;;;;4.80;3.40;;;;;;;12.49;57.19;100695.27;107893;275;104986;-55
2023/10/09 12:19:48;;;;;;;5.80;3.50;;;;;;;12.57;57.23;100692.12;107956;275;114318;-54
2023/10/09 12:22:27;;;;;;;6.20;3.50;;;;;;;12.49;57.06;100683.04;107924;275;98426;-52
2023/10/09 12:25:03;;;;;;;5.50;3.80;;;;;;;12.35;57.09;100685.41;107891;275;98494;-54
2023/10/09 12:27:43;;;;;;;7.10;3.40;;;;;;;12.21;57.09;100685.73;107906;275;119782;-59
2023/10/09 12:30:28;;;;;;;4.80;3.40;;;;;;;12.22;57.38;100687.61;107940;275;104524;-60
2023/10/09 12:33:07;;;;;;;6.90;4.30;;;;;;;12.26;57.59;100691.41;107948;275;113272;-57
2023/10/09 12:35:47;;;;;;;5.30;3.70;;;;;;;12.25;57.82;100697.05;107961;275;95965;-59
2023/10/09 12:38:31;;;;;;;6.60;4.30;;;;;;;12.23;58.03;100696.88;108029;275;97153;-60
2023/10/09 12:41:19;;;;;;;5.60;3.70;;;;;;;12.24;58.38;100696.73;108032;275;118381;-54
2023/10/09 12:43:58;;;;;;;5.90;4.00;;;;;;;12.19;58.26;100695.91;107943;275;104712;-54
2023/10/09 12:46:37;;;;;;;7.80;4.30;;;;;;;12.19;58.35;100694.00;107905;276;113920;-59
2023/10/09 12:49:14;;;;;;;5.00;3.50;;;;;;;12.21;58.39;100687.10;107935;275;93654;-58
2023/10/09 12:51:53;;;;;;;;;;;;;;;12.17;58.63;100690.64;107984;276;97436;-55
2023/10/09 12:54:40;;;;;;;7.90;4.20;;;;;;;12.21;58.67;100689.64;108020;276;119684;-54
2023/10/09 12:57:15;;;;;;;8.80;4.30;;;;;;;12.17;58.83;100688.81;107938;275;105322;-55
2023/10/09 12:59:51;;;;;;;7.00;5.00;;;;;;;12.14;58.72;100686.70;107919;276;114813;-56
2023/10/09 13:02:35;;;;;;;7.50;5.20;;;;;;;12.06;58.76;100680.86;107710;276;94636;-55
2023/10/09 13:05:29;;;;;;;9.80;4.90;;;;;;;11.90;58.65;100679.06;107905;276;98205;-57
2023/10/09 13:08:06;;;;;;;6.40;4.20;;;;;;;11.81;58.59;100684.20;107909;275;120223;-54
2023/10/09 13:11:00;;;;;;;5.90;4.00;;;;;;;11.69;58.66;100680.98;107977;275;105191;-60
2023/10/09 13:14:07;;;;;;;6.40;4.40;;;;;;;11.56;59.11;100680.08;107912;275;115337;-57
2023/10/09 13:16:47;;;;;;;6.30;4.10;;;;;;;11.48;59.35;100677.43;107976;275;94005;-56
2023/10/09 13:19:34;;;;;;;6.20;4.10;;;;;;;11.41;59.61;100679.28;107929;275;97800;-56
2023/10/09 13:22:12;;;;;;;6.50;4.20;;;;;;;11.39;59.95;100680.19;107811;275;119707;-56
2023/10/09 13:24:53;;;;;;;7.30;4.40;;;;;;;11.38;59.96;100672.79;108031;275;105745;-53
2023/10/09 13:27:34;;;;;;;9.30;4.40;;;;;;;11.31;59.88;100673.83;107997;275;113545;-56
2023/10/09 13:30:21;;;;;;;6.90;4.80;;;;;;;11.18;60.04;100667.09;107952;276;94110;-56
2023/10/09 13:33:00;;;;;;;8.60;4.50;;;;;;;11.09;60.20;100657.52;107913;276;95611;-55
2023/10/09 13:35:48;;;;;;;6.80;4.40;;;;;;;10.97;60.33;100650.94;107989;275;119729;-56
2023/10/09 13:38:26;;;;;;;8.30;5.00;;;;;;;10.82;60.70;100658.19;107951;275;103715;-57
2023/10/09 13:41:08;;;;;;;6.80;4.10;;;;;;;10.65;60.97;100664.23;107980;275;114933;-54
2023/10/09 13:43:54;;;;;;;7.10;4.70;;;;;;;10.49;61.34;100655.70;107909;275;94328;-54
2023/10/09 13:46:31;;;;;;;8.10;4.70;;;;;;;10.42;61.30;100653.67;107996;275;97204;-54
2023/10/09 13:49:13;;;;;;;6.10;4.10;;;;;;;10.23;61.60;100652.41;107913;275;120759;-55